createdAt,value
2018-11-20T00:01:18.412Z,948.9
2018-11-20T00:11:21.879Z,949.3
2018-11-20T00:21:25.318Z,948.5
2018-11-20T00:31:28.725Z,949.4
2018-11-20T00:41:32.291Z,948.6
2018-11-20T00:51:35.722Z,948.9
2018-11-20T01:01:39.183Z,949.6
2018-11-20T01:11:42.598Z,948.7
2018-11-20T01:21:46.046Z,948.8
2018-11-20T01:31:49.478Z,949
2018-11-20T01:41:52.934Z,949
2018-11-20T01:51:56.356Z,948.7
2018-11-20T02:01:59.804Z,948.7
2018-11-20T02:12:03.236Z,949.6
2018-11-20T02:22:06.691Z,948.8
2018-11-20T02:32:10.140Z,948.8
2018-11-20T02:42:13.597Z,948.3
2018-11-20T02:52:17.038Z,947.8
2018-11-20T03:02:20.469Z,948
2018-11-20T03:12:23.933Z,947.9
2018-11-20T03:22:27.384Z,948.9
2018-11-20T03:32:30.858Z,949.1
2018-11-20T03:42:34.288Z,948
2018-11-20T03:52:38.725Z,948.4
2018-11-20T04:02:42.160Z,947.9
2018-11-20T04:12:45.585Z,948
2018-11-20T04:22:49.060Z,948.9
2018-11-20T04:32:52.523Z,948
2018-11-20T04:42:55.933Z,948.4
2018-11-20T04:52:59.406Z,948.7
2018-11-20T05:03:02.890Z,949.1
2018-11-20T05:13:06.568Z,948.7
2018-11-20T05:23:09.982Z,948.4
2018-11-20T05:33:13.438Z,948.5
2018-11-20T05:43:16.887Z,949.4
2018-11-20T05:53:20.342Z,949.1
2018-11-20T06:03:23.789Z,949.3
2018-11-20T06:13:27.254Z,949
2018-11-20T06:23:30.720Z,948.5
2018-11-20T06:33:34.214Z,949.3
2018-11-20T06:43:37.675Z,948.4
2018-11-20T06:53:41.805Z,948.3
2018-11-20T07:03:45.344Z,948.7
2018-11-20T07:13:48.777Z,949.1
2018-11-20T07:23:52.223Z,948.6
2018-11-20T07:33:55.685Z,949.4
2018-11-20T07:43:59.638Z,950.2
2018-11-20T07:54:03.133Z,949.5
2018-11-20T08:04:06.605Z,948.5
2018-11-20T08:14:10.062Z,948.4
2018-11-20T08:24:13.526Z,949.3
2018-11-20T08:34:17.521Z,948.7
2018-11-20T08:44:21.435Z,948.5
2018-11-20T08:54:24.879Z,948.8
2018-11-20T09:04:28.352Z,948.3
2018-11-20T09:14:31.802Z,948.6
2018-11-20T09:24:36.283Z,949.3
2018-11-20T09:34:40.535Z,948.5
2018-11-20T09:44:44.019Z,949
2018-11-20T09:54:47.468Z,949
2018-11-20T10:04:50.927Z,949.5
2018-11-20T10:14:55.450Z,948.4
2018-11-20T10:24:59.929Z,949.6
2018-11-20T10:35:03.388Z,948.5
2018-11-20T10:45:06.827Z,947.9
2018-11-20T10:55:10.292Z,947.5
2018-11-20T11:05:13.768Z,947.4
2018-11-20T11:15:17.214Z,948.2
2018-11-20T11:25:20.671Z,947.9
2018-11-20T11:35:24.146Z,947.8
2018-11-20T11:45:27.618Z,947.5
2018-11-20T11:55:31.080Z,947.7
2018-11-20T12:05:34.525Z,948
2018-11-20T12:15:37.938Z,947.6
2018-11-20T12:25:41.398Z,948.2
2018-11-20T12:35:44.868Z,947.9
2018-11-20T12:45:48.327Z,954.7
2018-11-20T12:55:51.774Z,947.3
2018-11-20T13:05:55.199Z,954.5
2018-11-20T13:15:58.661Z,948.2
2018-11-20T13:26:02.090Z,948.3
2018-11-20T13:36:05.570Z,948.2
2018-11-20T13:46:09.026Z,947.9
2018-11-20T13:56:12.472Z,947.8
2018-11-20T14:06:15.913Z,947.9
2018-11-20T14:16:19.415Z,947.9
2018-11-20T14:26:22.836Z,948.4
2018-11-20T14:36:26.294Z,948.6
2018-11-20T14:46:29.767Z,947.9
2018-11-20T14:56:33.233Z,948.4
2018-11-20T15:06:36.663Z,948
2018-11-20T15:16:40.143Z,955.4
2018-11-20T15:26:43.603Z,948.2
2018-11-20T15:36:47.078Z,949
2018-11-20T15:46:50.535Z,949
2018-11-20T15:56:53.981Z,948.7
2018-11-20T16:07:02.140Z,948.6
2018-11-20T16:17:17.967Z,948.8
2018-11-20T16:27:21.448Z,949.5
2018-11-20T16:37:24.889Z,949.4
2018-11-20T16:47:28.340Z,949.3
2018-11-20T16:57:31.797Z,949.8
2018-11-20T17:07:35.259Z,949.4
2018-11-20T17:17:38.692Z,949.6
2018-11-20T17:27:42.165Z,949.9
2018-11-20T17:37:45.624Z,949.6
2018-11-20T17:47:49.082Z,949.4
2018-11-20T17:57:57.651Z,949.9
2018-11-20T18:08:01.090Z,949.4
2018-11-20T18:18:04.499Z,949.5
2018-11-20T18:28:07.947Z,949.5
2018-11-20T18:38:11.422Z,949.6
2018-11-20T18:48:15.110Z,949.4
2018-11-20T18:58:18.576Z,949.7
2018-11-20T19:08:22.169Z,949.8
2018-11-20T19:18:25.661Z,950.4
2018-11-20T19:28:29.119Z,950.4
2018-11-20T19:38:32.569Z,950.6
2018-11-20T19:48:35.994Z,950.5
2018-11-20T19:58:39.453Z,951.1
2018-11-20T20:08:42.885Z,951
2018-11-20T20:18:46.355Z,951
2018-11-20T20:28:49.826Z,951.2
2018-11-20T20:38:53.301Z,951.8
2018-11-20T20:48:56.876Z,952
2018-11-20T20:59:00.452Z,951.7
2018-11-20T21:09:03.922Z,951.8
2018-11-20T21:19:07.391Z,952.3
2018-11-20T21:29:10.794Z,952.4
2018-11-20T21:39:14.233Z,952.9
2018-11-20T21:49:17.689Z,952.8
2018-11-20T21:59:21.114Z,952.7
2018-11-20T22:09:24.561Z,952.9
2018-11-20T22:19:28.003Z,953.1
2018-11-20T22:29:31.431Z,952.8
2018-11-20T22:39:34.852Z,953
2018-11-20T22:49:38.267Z,953
2018-11-20T22:59:41.739Z,953
2018-11-20T23:09:45.210Z,953
2018-11-20T23:19:48.670Z,953.3
2018-11-20T23:29:52.100Z,953.7
2018-11-20T23:39:55.553Z,953.2
2018-11-20T23:49:59.002Z,952.9
